createdAt,value
2019-05-19T00:03:06.973Z,98.17
2019-05-19T00:08:07.198Z,97.53
2019-05-19T00:13:06.844Z,97.06
2019-05-19T00:18:07.088Z,97.79
2019-05-19T00:22:06.607Z,97.32
2019-05-19T00:27:05.943Z,97.75
2019-05-19T00:32:06.311Z,97.72
2019-05-19T00:37:06.619Z,98.47
2019-05-19T00:42:06.145Z,98.49
2019-05-19T00:47:06.350Z,100
2019-05-19T00:51:06.911Z,100
2019-05-19T00:56:07.223Z,100
2019-05-19T01:01:06.063Z,100
2019-05-19T01:06:08.404Z,100
2019-05-19T01:11:06.962Z,100
2019-05-19T01:16:06.366Z,100
2019-05-19T01:21:06.610Z,100
2019-05-19T01:26:06.835Z,100
2019-05-19T01:30:08.875Z,100
2019-05-19T01:35:07.042Z,100
2019-05-19T01:40:07.565Z,100
2019-05-19T01:45:09.010Z,100
2019-05-19T01:50:19.544Z,100
2019-05-19T01:55:07.730Z,100
2019-05-19T02:00:07.682Z,100
2019-05-19T02:05:06.754Z,100
2019-05-19T02:10:06.551Z,100
2019-05-19T02:15:07.897Z,100
2019-05-19T02:19:07.254Z,100
2019-05-19T02:24:07.419Z,100
2019-05-19T02:29:07.644Z,100
2019-05-19T02:34:07.636Z,100
2019-05-19T02:39:08.294Z,100
2019-05-19T02:44:07.475Z,100
2019-05-19T02:49:07.441Z,100
2019-05-19T02:53:07.007Z,100
2019-05-19T02:58:07.273Z,100
2019-05-19T03:03:07.184Z,100
2019-05-19T03:08:07.431Z,100
2019-05-19T03:13:07.084Z,-5.48
2019-05-19T03:18:07.216Z,-5.49
2019-05-19T03:23:07.633Z,-5.59
2019-05-19T03:28:07.876Z,100
2019-05-19T03:32:13.960Z,100
2019-05-19T03:37:07.251Z,100
2019-05-19T03:42:11.513Z,100
2019-05-19T03:47:07.661Z,100
2019-05-19T03:52:07.939Z,100
2019-05-19T03:57:06.185Z,100
2019-05-19T04:02:06.899Z,100
2019-05-19T04:07:06.115Z,100
2019-05-19T04:11:07.007Z,100
2019-05-19T04:16:05.970Z,100
2019-05-19T04:21:07.376Z,100
2019-05-19T04:26:06.298Z,100
2019-05-19T04:31:06.478Z,95.21
2019-05-19T04:36:06.815Z,90.36
2019-05-19T04:41:06.488Z,83.99
2019-05-19T04:48:10.674Z,84.76
2019-05-19T04:52:08.230Z,85.27
2019-05-19T04:57:06.883Z,80.52
2019-05-19T05:02:07.669Z,77.91
2019-05-19T05:07:06.945Z,75.6
2019-05-19T05:12:07.721Z,77.77
2019-05-19T05:17:07.100Z,76.05
2019-05-19T05:22:23.167Z,73.69
2019-05-19T05:27:07.583Z,74.63
2019-05-19T05:31:06.036Z,74.91
2019-05-19T05:36:06.315Z,78.01
2019-05-19T05:41:05.983Z,78.31
2019-05-19T05:46:06.899Z,74.39
2019-05-19T05:51:06.123Z,71.17
2019-05-19T05:56:06.334Z,72.4
2019-05-19T06:01:06.956Z,72.54
2019-05-19T06:06:07.216Z,67.61
2019-05-19T06:11:07.848Z,64.88
2019-05-19T06:15:07.409Z,64.96
2019-05-19T06:20:06.912Z,63.87
2019-05-19T06:25:06.792Z,62.5
2019-05-19T06:30:08.751Z,61.58
2019-05-19T06:35:06.465Z,61.91
2019-05-19T06:40:06.033Z,61.32
2019-05-19T06:45:07.696Z,59.81
2019-05-19T06:49:06.687Z,61.08
2019-05-19T06:54:06.004Z,62.87
2019-05-19T06:59:06.323Z,61.85
2019-05-19T07:04:07.063Z,62.37
2019-05-19T07:09:07.843Z,62.12
2019-05-19T07:14:07.126Z,59.07
2019-05-19T07:18:07.157Z,58.33
2019-05-19T07:19:07.814Z,58.33
2019-05-19T07:23:06.363Z,58.01
2019-05-19T07:28:06.539Z,57.64
2019-05-19T07:33:06.671Z,56.44
2019-05-19T07:38:07.469Z,55.1
2019-05-19T07:43:06.182Z,55.28
2019-05-19T07:48:06.492Z,55.96
2019-05-19T07:53:06.688Z,53.06
2019-05-19T07:57:06.217Z,53.15
2019-05-19T08:02:05.933Z,54.09
2019-05-19T08:07:06.226Z,52.3
2019-05-19T08:12:06.895Z,51.72
2019-05-19T08:17:06.079Z,51.99
2019-05-19T08:22:06.320Z,51.5
2019-05-19T08:27:06.548Z,51.19
2019-05-19T08:31:05.946Z,49.55
2019-05-19T08:36:06.159Z,48.16
2019-05-19T08:41:06.695Z,49.83
2019-05-19T08:46:06.687Z,49.02
2019-05-19T08:51:05.929Z,49.6
2019-05-19T08:56:06.336Z,48.91
2019-05-19T09:01:06.908Z,48.25
2019-05-19T09:06:06.294Z,48.04
2019-05-19T09:10:06.322Z,47
2019-05-19T09:15:07.924Z,47.48
2019-05-19T09:20:06.538Z,45.45
2019-05-19T09:25:06.860Z,46.31
2019-05-19T09:30:08.003Z,45.98
2019-05-19T09:35:06.087Z,45.59
2019-05-19T09:40:06.742Z,45.24
2019-05-19T09:44:07.171Z,46.22
2019-05-19T09:49:06.685Z,45.55
2019-05-19T09:54:06.115Z,43.74
2019-05-19T09:59:06.328Z,44.64
2019-05-19T10:04:07.122Z,43.26
2019-05-19T10:09:06.858Z,44.06
2019-05-19T10:14:06.091Z,43.71
2019-05-19T10:19:06.294Z,43.07
2019-05-19T10:23:06.808Z,39.86
2019-05-19T10:28:06.082Z,41.4
2019-05-19T10:33:06.400Z,38.79
2019-05-19T10:38:06.745Z,39.38
2019-05-19T10:43:06.504Z,38.57
2019-05-19T10:48:06.853Z,37.32
2019-05-19T10:53:06.110Z,37.99
2019-05-19T10:57:06.487Z,38.97
2019-05-19T11:02:07.111Z,37.9
2019-05-19T11:07:07.516Z,38
2019-05-19T11:12:07.083Z,41.89
2019-05-19T11:17:07.451Z,41.7
2019-05-19T11:22:07.745Z,39.07
2019-05-19T11:27:09.667Z,38.63
2019-05-19T11:32:07.153Z,38.03
2019-05-19T11:36:07.410Z,37.41
2019-05-19T11:41:06.190Z,36.58
2019-05-19T11:46:06.354Z,37.32
2019-05-19T11:51:06.616Z,39.27
2019-05-19T11:56:09.226Z,38.83
2019-05-19T12:01:06.056Z,39.64
2019-05-19T12:06:06.381Z,38.47
2019-05-19T12:11:05.937Z,37.61
2019-05-19T12:16:06.284Z,36.06
2019-05-19T12:20:07.299Z,39.45
2019-05-19T12:25:07.564Z,39.74
2019-05-19T12:30:09.650Z,37.71
2019-05-19T12:35:08.767Z,35.93
2019-05-19T12:40:07.313Z,36.09
2019-05-19T12:45:09.515Z,37.79
2019-05-19T12:50:09.483Z,40.02
2019-05-19T12:54:06.023Z,38.9
2019-05-19T12:59:06.431Z,39.06
2019-05-19T13:04:06.022Z,36.39
2019-05-19T13:09:07.636Z,36.68
2019-05-19T13:14:06.028Z,38.14
2019-05-19T13:19:05.977Z,35.61
2019-05-19T13:24:06.228Z,36.57
2019-05-19T13:29:07.426Z,38.14
2019-05-19T13:33:06.761Z,39.25
2019-05-19T13:38:06.427Z,39.8
2019-05-19T13:43:06.698Z,38.86
2019-05-19T13:53:06.181Z,36.02
2019-05-19T13:58:06.458Z,36.04
2019-05-19T14:03:06.301Z,36.3
2019-05-19T14:08:06.525Z,35.49
2019-05-19T14:12:06.353Z,36
2019-05-19T14:17:06.651Z,36.06
2019-05-19T14:22:06.858Z,37.12
2019-05-19T14:27:06.747Z,35.71
2019-05-19T14:32:06.475Z,33.87
2019-05-19T14:37:06.691Z,37.86
2019-05-19T14:42:06.401Z,38.91
2019-05-19T14:47:06.479Z,37.26
2019-05-19T14:51:06.037Z,36.16
2019-05-19T14:56:06.950Z,34.62
2019-05-19T14:57:05.899Z,34.62
2019-05-19T15:01:06.001Z,34.13
2019-05-19T15:06:07.388Z,34.42
2019-05-19T15:11:06.116Z,35.01
2019-05-19T15:16:07.049Z,34.88
2019-05-19T15:21:06.301Z,33.91
2019-05-19T15:26:07.516Z,33.01
2019-05-19T15:31:05.950Z,32.14
2019-05-19T15:35:06.326Z,33.16
2019-05-19T15:40:06.069Z,32.78
2019-05-19T15:45:07.641Z,32.95
2019-05-19T15:50:06.942Z,33.63
2019-05-19T15:55:07.510Z,34.12
2019-05-19T16:00:09.029Z,32.33
2019-05-19T16:05:06.549Z,31.79
2019-05-19T16:09:06.369Z,31.65
2019-05-19T16:14:07.602Z,30.93
2019-05-19T16:19:06.690Z,32.25
2019-05-19T16:24:06.588Z,30.82
2019-05-19T16:29:06.763Z,30.17
2019-05-19T16:34:06.764Z,31.59
2019-05-19T16:38:06.210Z,32.14
2019-05-19T16:43:06.911Z,31.77
2019-05-19T16:48:06.440Z,31.35
2019-05-19T16:53:07.800Z,29.39
2019-05-19T16:58:19.819Z,31.11
2019-05-19T17:03:06.002Z,28.56
2019-05-19T17:08:06.377Z,27.83
2019-05-19T17:13:06.036Z,29.76
2019-05-19T17:17:06.427Z,31.98
2019-05-19T17:22:06.649Z,32.79
2019-05-19T17:27:06.945Z,32.54
2019-05-19T17:32:06.498Z,32.31
2019-05-19T17:37:08.077Z,32.39
2019-05-19T17:42:06.703Z,34.84
2019-05-19T17:46:06.085Z,41.17
2019-05-19T17:51:06.337Z,44.79
2019-05-19T17:56:07.667Z,51.9
2019-05-19T18:01:06.125Z,54.72
2019-05-19T18:06:06.393Z,55.67
2019-05-19T18:11:06.097Z,56.35
2019-05-19T18:15:07.346Z,58.07
2019-05-19T18:20:07.232Z,59.72
2019-05-19T18:25:06.510Z,60.99
2019-05-19T18:30:10.599Z,62.38
2019-05-19T18:35:07.332Z,63.12
2019-05-19T18:40:07.906Z,64.51
2019-05-19T18:45:09.449Z,66.09
2019-05-19T18:50:06.364Z,68.01
2019-05-19T18:54:06.767Z,69.24
2019-05-19T18:59:06.213Z,70.74
2019-05-19T19:04:06.890Z,72.75
2019-05-19T19:09:06.679Z,73.07
2019-05-19T19:14:06.932Z,74.13
2019-05-19T19:19:07.334Z,74.81
2019-05-19T19:24:06.636Z,75.86
2019-05-19T19:29:06.837Z,76.34
2019-05-19T19:34:07.177Z,77.37
2019-05-19T19:39:07.120Z,78.11
2019-05-19T19:43:06.957Z,79.14
2019-05-19T19:48:07.265Z,80.15
2019-05-19T19:53:07.490Z,81.09
2019-05-19T19:58:07.668Z,81.38
2019-05-19T20:03:06.988Z,81.31
2019-05-19T20:08:06.167Z,82.75
2019-05-19T20:13:06.090Z,83.97
2019-05-19T20:18:06.834Z,84.35
2019-05-19T20:22:07.158Z,84.74
2019-05-19T20:27:06.344Z,85.05
2019-05-19T20:32:06.592Z,85.25
2019-05-19T20:37:06.751Z,86
2019-05-19T20:42:06.373Z,86.11
2019-05-19T20:47:06.419Z,86.26
2019-05-19T20:52:06.697Z,86.52
2019-05-19T20:57:06.871Z,85.34
2019-05-19T21:01:06.078Z,84.6
2019-05-19T21:06:06.287Z,85.21
2019-05-19T21:11:05.949Z,85.58
2019-05-19T21:16:06.471Z,85.58
2019-05-19T21:21:06.693Z,83.82
2019-05-19T21:26:06.848Z,82.21
2019-05-19T21:31:06.446Z,81.5
2019-05-19T21:36:06.713Z,81.43
2019-05-19T21:40:07.502Z,81.25
2019-05-19T21:46:06.529Z,80.71
2019-05-19T21:50:07.070Z,80.67
2019-05-19T21:55:07.220Z,81.06
2019-05-19T22:00:08.465Z,81.71
2019-05-19T22:05:06.594Z,81.67
2019-05-19T22:10:07.551Z,81.51
2019-05-19T22:15:08.763Z,81.73
2019-05-19T22:20:07.045Z,81.72
2019-05-19T22:24:06.475Z,82.27
2019-05-19T22:29:06.596Z,82.14
2019-05-19T22:34:05.894Z,83.73
2019-05-19T22:39:06.490Z,84.91
2019-05-19T22:44:06.716Z,87.36
2019-05-19T22:49:06.065Z,90.19
2019-05-19T22:54:06.367Z,92.45
2019-05-19T22:59:18.752Z,92.67
2019-05-19T23:03:06.268Z,94.8
2019-05-19T23:08:06.484Z,95.09
2019-05-19T23:13:08.264Z,95.18
2019-05-19T23:18:06.679Z,96.09
2019-05-19T23:23:06.887Z,97.02
2019-05-19T23:28:06.073Z,98.29
2019-05-19T23:33:06.176Z,96.63
2019-05-19T23:38:06.288Z,97.5
2019-05-19T23:43:06.099Z,98.59
2019-05-19T23:47:06.644Z,100
2019-05-19T23:52:06.858Z,99.54
2019-05-19T23:57:06.066Z,100
